Karns, Tennessee
Current Conditions -  °F | °C
As of 12:53 AM on Monday 20 Oct 2014 (Local Time) from KTYS Reporting Station
Broken Clouds Broken Clouds  
Wind Chill: 49°   Ceiling: 25000
Heat Index: 49°   Visibility: 10mi
Dew Point: 45°   Wind: 0mph
Humidity: 86%   Direction: NA
Pressure: 30.09"   Gusts: NA
Location:  35.9785°N, 84.0015°W
Report Text: KTYS 200453Z 00000KT 10SM SCT150 BKN250 09/07 A3009 RMK AO2 SLP188 T00940072 401830089
Loading
Personal Weather Stations






























Interactive Weather Map
Tropical Storm Tracking
New forecast layout! Learn more

10-Day Weather Forecast

Advertisements
Track Severe Weather on mobile